createdAt,value
2018-11-05T00:00:39.168Z,12.60
2018-11-05T00:03:07.963Z,12.27
2018-11-05T00:05:36.245Z,10.77
2018-11-05T00:08:04.703Z,12.67
2018-11-05T00:10:33.177Z,13.00
2018-11-05T00:13:01.440Z,12.27
2018-11-05T00:15:29.676Z,11.93
2018-11-05T00:17:57.927Z,11.50
2018-11-05T00:20:26.154Z,12.77
2018-11-05T00:22:54.385Z,11.40
2018-11-05T00:25:22.655Z,10.50
2018-11-05T00:27:50.880Z,10.13
2018-11-05T00:30:19.108Z,14.27
2018-11-05T00:32:47.331Z,12.60
2018-11-05T00:35:15.556Z,12.10
2018-11-05T00:37:43.785Z,12.67
2018-11-05T00:40:14.996Z,10.97
2018-11-05T00:42:43.850Z,14.70
2018-11-05T00:45:12.495Z,12.63
2018-11-05T00:47:41.239Z,11.53
2018-11-05T00:50:11.290Z,11.70
2018-11-05T00:52:39.551Z,12.33
2018-11-05T00:55:08.400Z,11.40
2018-11-05T00:57:36.700Z,15.17
2018-11-05T01:00:07.748Z,12.23
2018-11-05T01:02:35.983Z,14.27
2018-11-05T01:05:04.446Z,11.33
2018-11-05T01:07:32.738Z,12.20
2018-11-05T01:10:00.950Z,13.90
2018-11-05T01:12:29.193Z,12.73
2018-11-05T01:14:57.466Z,10.57
2018-11-05T01:17:25.719Z,11.47
2018-11-05T01:19:53.980Z,12.47
2018-11-05T01:22:22.231Z,12.73
2018-11-05T01:24:50.465Z,11.90
2018-11-05T01:27:18.718Z,11.50
2018-11-05T01:29:46.934Z,11.93
2018-11-05T01:32:15.170Z,14.13
2018-11-05T01:34:43.403Z,12.20
2018-11-05T01:37:11.710Z,11.60
2018-11-05T01:39:39.857Z,11.93
2018-11-05T01:42:08.096Z,13.30
2018-11-05T01:44:36.449Z,11.53
2018-11-05T01:47:04.831Z,13.37
2018-11-05T01:49:33.022Z,12.93
2018-11-05T01:52:01.258Z,15.63
2018-11-05T01:54:29.478Z,14.03
2018-11-05T01:56:57.698Z,13.97
2018-11-05T01:59:26.259Z,12.57
2018-11-05T02:01:54.475Z,15.93
2018-11-05T02:04:22.811Z,11.00
2018-11-05T02:06:51.062Z,15.57
2018-11-05T02:09:19.367Z,12.77
2018-11-05T02:11:47.606Z,13.23
2018-11-05T02:14:15.827Z,15.07
2018-11-05T02:16:44.096Z,13.47
2018-11-05T02:19:12.519Z,12.90
2018-11-05T02:21:40.815Z,13.33
2018-11-05T02:24:09.156Z,13.33
2018-11-05T02:26:37.711Z,12.87
2018-11-05T02:29:06.188Z,14.23
2018-11-05T02:31:34.439Z,15.53
2018-11-05T02:34:02.696Z,13.63
2018-11-05T02:36:30.941Z,13.63
2018-11-05T02:38:59.153Z,16.20
2018-11-05T02:41:27.412Z,21.80
2018-11-05T02:43:55.653Z,14.97
2018-11-05T02:46:23.913Z,13.93
2018-11-05T02:48:52.150Z,16.30
2018-11-05T02:51:20.380Z,17.10
2018-11-05T02:53:48.615Z,16.23
2018-11-05T02:56:16.847Z,18.23
2018-11-05T02:58:45.088Z,20.60
2018-11-05T03:01:13.319Z,16.17
2018-11-05T03:03:41.660Z,16.33
2018-11-05T03:06:09.899Z,16.63
2018-11-05T03:08:38.147Z,16.70
2018-11-05T03:11:06.439Z,16.13
2018-11-05T03:13:34.685Z,16.87
2018-11-05T03:16:02.894Z,13.13
2018-11-05T03:18:32.144Z,13.53
2018-11-05T03:21:00.436Z,14.87
2018-11-05T03:23:28.669Z,16.57
2018-11-05T03:25:56.881Z,15.57
2018-11-05T03:28:25.099Z,17.00
2018-11-05T03:30:53.315Z,12.60
2018-11-05T03:33:21.543Z,14.73
2018-11-05T03:35:49.776Z,14.10
2018-11-05T03:38:17.995Z,15.83
2018-11-05T03:40:46.214Z,13.47
2018-11-05T03:43:14.439Z,12.53
2018-11-05T03:45:42.671Z,11.57
2018-11-05T03:48:10.894Z,15.97
2018-11-05T03:50:39.134Z,14.47
2018-11-05T03:53:07.406Z,13.33
2018-11-05T03:55:35.687Z,15.03
2018-11-05T03:58:03.900Z,12.27
2018-11-05T04:00:32.160Z,13.30
2018-11-05T04:03:00.398Z,15.20
2018-11-05T04:05:28.618Z,15.27
2018-11-05T04:07:56.852Z,13.40
2018-11-05T04:10:25.060Z,13.57
2018-11-05T04:12:53.300Z,13.80
2018-11-05T04:15:21.553Z,12.37
2018-11-05T04:17:49.739Z,13.33
2018-11-05T04:20:17.946Z,14.13
2018-11-05T04:22:46.171Z,13.87
2018-11-05T04:25:14.397Z,15.20
2018-11-05T04:27:42.731Z,15.17
2018-11-05T04:30:13.241Z,15.47
2018-11-05T04:32:41.857Z,13.93
2018-11-05T04:35:10.508Z,10.80
2018-11-05T04:37:38.773Z,12.17
2018-11-05T04:40:08.247Z,11.50
2018-11-05T04:42:36.497Z,12.93
2018-11-05T04:45:05.769Z,14.40
2018-11-05T04:47:34.035Z,15.37
2018-11-05T04:50:02.271Z,12.57
2018-11-05T04:52:30.492Z,13.17
2018-11-05T04:54:58.763Z,11.83
2018-11-05T04:57:27.352Z,12.90
2018-11-05T04:59:55.568Z,13.70
2018-11-05T05:02:24.490Z,15.73
2018-11-05T05:04:52.696Z,14.13
2018-11-05T05:07:20.932Z,12.90
2018-11-05T05:09:49.169Z,13.97
2018-11-05T05:12:17.378Z,13.43
2018-11-05T05:14:45.583Z,13.67
2018-11-05T05:17:13.816Z,12.57
2018-11-05T05:19:42.035Z,15.23
2018-11-05T05:22:10.269Z,13.23
2018-11-05T05:24:38.659Z,15.63
2018-11-05T05:27:07.649Z,14.33
2018-11-05T05:29:35.852Z,16.10
2018-11-05T05:32:04.144Z,14.93
2018-11-05T05:34:32.359Z,13.60
2018-11-05T05:37:00.619Z,14.40
2018-11-05T05:39:28.893Z,16.23
2018-11-05T05:41:57.110Z,18.53
2018-11-05T05:44:25.360Z,15.83
2018-11-05T05:46:53.567Z,16.67
2018-11-05T05:49:21.815Z,16.00
2018-11-05T05:51:50.088Z,18.87
2018-11-05T05:54:18.562Z,18.07
2018-11-05T05:56:46.827Z,15.70
2018-11-05T05:59:15.083Z,15.07
2018-11-05T06:01:43.400Z,13.73
2018-11-05T06:04:11.679Z,14.70
2018-11-05T06:06:40.156Z,15.33
2018-11-05T06:09:09.535Z,17.97
2018-11-05T06:11:38.119Z,20.27
2018-11-05T06:14:07.195Z,15.27
2018-11-05T06:16:36.213Z,18.00
2018-11-05T06:19:04.510Z,16.07
2018-11-05T06:21:32.783Z,14.87
2018-11-05T06:24:01.044Z,15.23
2018-11-05T06:26:29.351Z,17.73
2018-11-05T06:28:57.725Z,16.57
2018-11-05T06:31:26.006Z,17.90
2018-11-05T06:33:54.272Z,15.53
2018-11-05T06:36:22.513Z,18.13
2018-11-05T06:38:50.902Z,18.93
2018-11-05T06:41:19.344Z,17.40
2018-11-05T06:43:47.574Z,18.53
2018-11-05T06:46:15.832Z,20.83
2018-11-05T06:48:44.137Z,17.43
2018-11-05T06:51:12.443Z,16.73
2018-11-05T06:53:40.723Z,16.70
2018-11-05T06:56:08.931Z,18.73
2018-11-05T06:58:37.186Z,18.47
2018-11-05T07:01:05.755Z,22.00
2018-11-05T07:03:34.164Z,18.63
2018-11-05T07:06:02.547Z,18.07
2018-11-05T07:08:30.663Z,18.60
2018-11-05T07:10:58.902Z,18.43
2018-11-05T07:13:27.126Z,18.80
2018-11-05T07:15:55.407Z,18.53
2018-11-05T07:18:23.678Z,18.00
2018-11-05T07:20:51.878Z,19.00
2018-11-05T07:23:20.135Z,20.83
2018-11-05T07:25:48.377Z,19.33
2018-11-05T07:28:16.646Z,21.90
2018-11-05T07:30:44.871Z,19.23
2018-11-05T07:33:13.203Z,18.00
2018-11-05T07:35:41.377Z,19.30
2018-11-05T07:38:09.611Z,15.80
2018-11-05T07:40:37.870Z,14.87
2018-11-05T07:43:06.139Z,18.70
2018-11-05T07:45:34.423Z,16.30
2018-11-05T07:48:02.710Z,19.47
2018-11-05T07:50:31.019Z,20.03
2018-11-05T07:52:59.275Z,19.07
2018-11-05T07:55:27.593Z,16.77
2018-11-05T07:57:55.863Z,15.40
2018-11-05T08:00:29.497Z,16.43
2018-11-05T08:02:58.256Z,15.93
2018-11-05T08:05:26.454Z,20.10
2018-11-05T08:07:54.780Z,14.93
2018-11-05T08:10:23.057Z,17.20
2018-11-05T08:12:51.340Z,18.67
2018-11-05T08:15:20.891Z,16.87
2018-11-05T08:17:50.059Z,14.73
2018-11-05T08:20:18.284Z,22.43
2018-11-05T08:22:46.639Z,15.63
2018-11-05T08:25:15.791Z,18.17
2018-11-05T08:27:44.110Z,16.27
2018-11-05T08:30:15.848Z,19.97
2018-11-05T08:32:44.147Z,18.83
2018-11-05T08:35:13.196Z,16.70
2018-11-05T08:37:42.766Z,17.80
2018-11-05T08:40:14.468Z,19.97
2018-11-05T08:42:43.286Z,18.47
2018-11-05T08:45:12.629Z,20.73
2018-11-05T08:47:40.916Z,17.77
2018-11-05T08:50:11.033Z,19.70
2018-11-05T08:52:39.459Z,21.37
2018-11-05T08:55:11.409Z,19.00
2018-11-05T08:57:40.083Z,20.97
2018-11-05T09:00:16.307Z,17.63
2018-11-05T09:02:45.645Z,19.07
2018-11-05T09:05:14.174Z,18.83
2018-11-05T09:07:42.829Z,20.17
2018-11-05T09:10:11.287Z,21.10
2018-11-05T09:12:39.472Z,16.50
2018-11-05T09:15:09.561Z,19.10
2018-11-05T09:17:37.818Z,23.83
2018-11-05T09:20:07.705Z,22.93
2018-11-05T09:22:36.459Z,18.40
2018-11-05T09:25:05.374Z,17.97
2018-11-05T09:27:33.785Z,17.23
2018-11-05T09:30:02.054Z,18.60
2018-11-05T09:32:30.299Z,22.07
2018-11-05T09:34:58.580Z,20.10
2018-11-05T09:37:26.868Z,18.83
2018-11-05T09:39:55.119Z,17.37
2018-11-05T09:42:23.416Z,16.87
2018-11-05T09:44:51.899Z,16.37
2018-11-05T09:47:20.207Z,19.47
2018-11-05T09:49:48.463Z,17.97
2018-11-05T09:52:16.805Z,18.47
2018-11-05T09:54:45.200Z,16.40
2018-11-05T09:57:13.538Z,19.27
2018-11-05T09:59:41.876Z,15.03
2018-11-05T10:02:10.160Z,19.73
2018-11-05T10:04:38.760Z,16.90
2018-11-05T10:07:06.873Z,18.47
2018-11-05T10:09:35.196Z,20.20
2018-11-05T10:12:03.482Z,18.40
2018-11-05T10:14:31.759Z,14.50
2018-11-05T10:17:00.027Z,17.47
2018-11-05T10:19:28.318Z,17.53
2018-11-05T10:21:56.830Z,24.20
2018-11-05T10:24:25.228Z,16.23
2018-11-05T10:26:53.534Z,15.40
2018-11-05T10:29:21.836Z,16.30
2018-11-05T10:31:50.105Z,17.33
2018-11-05T10:34:18.516Z,15.73
2018-11-05T10:36:46.812Z,18.13
2018-11-05T10:39:15.096Z,16.03
2018-11-05T10:41:43.376Z,16.37
2018-11-05T10:44:11.869Z,15.70
2018-11-05T10:46:40.125Z,18.43
2018-11-05T10:49:08.386Z,17.13
2018-11-05T10:51:36.609Z,16.13
2018-11-05T10:54:04.871Z,15.37
2018-11-05T10:56:33.202Z,18.30
2018-11-05T10:59:01.507Z,17.07
2018-11-05T11:01:35.193Z,19.87
2018-11-05T11:04:08.921Z,17.53
2018-11-05T11:06:37.051Z,17.50
2018-11-05T11:09:08.227Z,16.60
2018-11-05T11:11:36.625Z,16.70
2018-11-05T11:14:04.897Z,15.13
2018-11-05T11:16:33.263Z,19.20
2018-11-05T11:19:01.542Z,20.97
2018-11-05T11:21:29.823Z,16.47
2018-11-05T11:23:58.073Z,20.23
2018-11-05T11:26:26.363Z,15.97
2018-11-05T11:28:54.642Z,15.97
2018-11-05T11:31:22.867Z,16.23
2018-11-05T11:33:51.319Z,18.43
2018-11-05T11:36:20.022Z,18.40
2018-11-05T11:38:48.232Z,17.13
2018-11-05T11:41:16.524Z,16.53
2018-11-05T11:43:44.831Z,21.60
2018-11-05T11:46:13.112Z,18.83
2018-11-05T11:48:41.858Z,28.03
2018-11-05T11:51:10.165Z,16.93
2018-11-05T11:53:38.920Z,16.70
2018-11-05T11:56:07.311Z,13.90
2018-11-05T11:58:35.760Z,16.60
2018-11-05T12:01:04.139Z,13.17
2018-11-05T12:03:32.380Z,15.43
2018-11-05T12:06:00.672Z,17.57
2018-11-05T12:08:29.110Z,16.20
2018-11-05T12:10:57.380Z,14.97
2018-11-05T12:13:25.696Z,17.20
2018-11-05T12:15:54.048Z,20.10
2018-11-05T12:18:22.309Z,13.83
2018-11-05T12:20:50.770Z,15.73
2018-11-05T12:23:19.060Z,12.87
2018-11-05T12:25:47.575Z,14.93
2018-11-05T12:28:15.892Z,15.87
2018-11-05T12:30:44.253Z,16.00
2018-11-05T12:33:14.620Z,13.63
2018-11-05T12:35:43.017Z,16.93
2018-11-05T12:38:11.276Z,16.87
2018-11-05T12:40:39.522Z,16.67
2018-11-05T12:43:07.824Z,18.13
2018-11-05T12:45:36.696Z,14.47
2018-11-05T12:48:05.305Z,14.73
2018-11-05T12:50:33.802Z,19.83
2018-11-05T12:53:02.082Z,13.87
2018-11-05T12:55:30.355Z,15.43
2018-11-05T12:57:59.241Z,18.17
2018-11-05T13:00:27.551Z,14.07
2018-11-05T13:02:58.467Z,16.20
2018-11-05T13:05:27.733Z,15.57
2018-11-05T13:07:56.068Z,15.63
2018-11-05T13:10:24.667Z,13.50
2018-11-05T13:12:53.165Z,15.13
2018-11-05T13:15:21.507Z,16.10
2018-11-05T13:17:49.747Z,16.60
2018-11-05T13:20:20.095Z,17.63
2018-11-05T13:22:48.588Z,17.13
2018-11-05T13:25:16.765Z,15.80
2018-11-05T13:27:46.267Z,15.50
2018-11-05T13:30:15.096Z,18.67
2018-11-05T13:32:43.683Z,15.77
2018-11-05T13:35:13.218Z,16.87
2018-11-05T13:37:42.165Z,16.43
2018-11-05T13:40:12.614Z,20.43
2018-11-05T13:42:40.988Z,28.40
2018-11-05T13:48:05.712Z,17.90
2018-11-05T13:50:33.664Z,15.43
2018-11-05T13:53:01.984Z,15.90
2018-11-05T13:55:30.231Z,20.07
2018-11-05T13:57:58.539Z,12.93
2018-11-05T14:00:26.829Z,13.17
2018-11-05T14:02:55.117Z,20.20
2018-11-05T14:05:23.400Z,13.30
2018-11-05T14:07:51.744Z,14.80
2018-11-05T14:10:21.039Z,16.80
2018-11-05T14:12:49.673Z,15.33
2018-11-05T14:15:17.974Z,17.63
2018-11-05T14:17:46.494Z,13.93
2018-11-05T14:20:15.901Z,12.63
2018-11-05T14:22:44.208Z,16.13
2018-11-05T14:25:14.719Z,15.97
2018-11-05T14:27:44.375Z,14.17
2018-11-05T14:30:13.348Z,17.43
2018-11-05T14:32:42.875Z,14.57
2018-11-05T14:35:11.228Z,19.83
2018-11-05T14:37:39.620Z,15.73
2018-11-05T14:40:09.505Z,16.90
2018-11-05T14:42:37.894Z,21.10
2018-11-05T14:45:08.487Z,16.40
2018-11-05T14:47:36.784Z,14.80
2018-11-05T14:50:06.621Z,15.17
2018-11-05T14:52:34.967Z,16.97
2018-11-05T14:55:03.401Z,18.37
2018-11-05T14:57:31.719Z,14.83
2018-11-05T15:00:00.014Z,13.03
2018-11-05T15:02:33.707Z,12.93
2018-11-05T15:05:02.000Z,14.93
2018-11-05T15:07:30.293Z,16.07
2018-11-05T15:09:58.623Z,14.60
2018-11-05T15:12:26.943Z,15.43
2018-11-05T15:14:55.442Z,16.40
2018-11-05T15:17:23.835Z,12.13
2018-11-05T15:19:52.444Z,14.07
2018-11-05T15:22:20.517Z,18.17
2018-11-05T15:24:49.201Z,14.47
2018-11-05T15:27:17.511Z,16.27
2018-11-05T15:29:45.911Z,14.67
2018-11-05T15:32:14.182Z,14.67
2018-11-05T15:37:19.990Z,16.47
2018-11-05T15:39:48.472Z,14.53
2018-11-05T15:42:16.808Z,14.87
2018-11-05T15:44:45.151Z,16.50
2018-11-05T15:47:13.504Z,16.80
2018-11-05T15:49:41.949Z,14.03
2018-11-05T15:52:10.690Z,17.97
2018-11-05T15:54:38.972Z,14.57
2018-11-05T15:57:07.447Z,18.57
2018-11-05T15:59:35.823Z,17.07
2018-11-05T16:02:10.092Z,15.37
2018-11-05T16:04:39.015Z,18.07
2018-11-05T16:07:07.921Z,17.87
2018-11-05T16:09:36.509Z,19.33
2018-11-05T16:12:05.626Z,23.50
2018-11-05T16:14:34.174Z,19.30
2018-11-05T16:17:02.579Z,16.53
2018-11-05T16:19:31.070Z,15.67
2018-11-05T16:21:59.752Z,17.20
2018-11-05T16:24:28.553Z,18.10
2018-11-05T16:26:57.759Z,19.03
2018-11-05T16:29:26.113Z,18.10
2018-11-05T16:31:54.487Z,17.57
2018-11-05T16:34:22.929Z,22.07
2018-11-05T16:39:38.270Z,19.57
2018-11-05T16:42:06.482Z,19.47
2018-11-05T16:44:36.108Z,21.97
2018-11-05T16:47:05.713Z,23.53
2018-11-05T16:49:33.983Z,23.23
2018-11-05T16:52:02.279Z,28.43
2018-11-05T16:54:30.689Z,26.60
2018-11-05T16:56:59.101Z,21.43
2018-11-05T16:59:27.609Z,19.60
2018-11-05T17:01:56.625Z,24.90
2018-11-05T17:04:24.568Z,20.80
2018-11-05T17:06:53.033Z,22.50
2018-11-05T17:09:21.382Z,21.73
2018-11-05T17:11:49.949Z,20.60
2018-11-05T17:14:18.313Z,23.40
2018-11-05T17:16:46.671Z,20.53
2018-11-05T17:19:15.350Z,24.93
2018-11-05T17:21:44.285Z,21.30
2018-11-05T17:24:13.231Z,21.50
2018-11-05T17:26:42.024Z,22.00
2018-11-05T17:29:10.309Z,23.47
2018-11-05T17:31:38.924Z,21.00
2018-11-05T17:34:07.296Z,21.53
2018-11-05T17:36:35.813Z,20.27
2018-11-05T17:39:06.565Z,24.17
2018-11-05T17:41:35.044Z,24.40
2018-11-05T17:44:03.569Z,26.27
2018-11-05T17:46:31.885Z,22.23
2018-11-05T17:49:00.687Z,22.67
2018-11-05T17:51:29.423Z,26.80
2018-11-05T17:53:58.250Z,20.97
2018-11-05T17:56:26.693Z,26.60
2018-11-05T17:58:55.062Z,26.80
2018-11-05T18:01:23.498Z,23.07
2018-11-05T18:03:51.914Z,23.50
2018-11-05T18:06:20.319Z,28.23
2018-11-05T18:08:48.727Z,24.07
2018-11-05T18:11:17.100Z,104.87
2018-11-05T18:13:45.337Z,38.10
2018-11-05T18:16:13.723Z,22.67
2018-11-05T18:18:42.167Z,21.83
2018-11-05T18:21:10.549Z,20.97
2018-11-05T18:23:38.867Z,28.17
2018-11-05T18:26:07.184Z,26.90
2018-11-05T18:28:35.472Z,21.63
2018-11-05T18:31:03.887Z,19.03
2018-11-05T18:33:32.168Z,22.50
2018-11-05T18:36:00.483Z,24.00
2018-11-05T18:38:28.947Z,18.90
2018-11-05T18:40:57.447Z,48.63
2018-11-05T18:43:25.716Z,23.60
2018-11-05T18:45:54.018Z,21.90
2018-11-05T18:48:22.316Z,26.23
2018-11-05T18:50:50.579Z,25.50
2018-11-05T18:53:19.007Z,21.10
2018-11-05T18:55:47.274Z,24.80
2018-11-05T18:58:15.539Z,21.83
2018-11-05T19:00:44.846Z,22.93
2018-11-05T19:03:13.193Z,25.30
2018-11-05T19:05:41.559Z,24.60
2018-11-05T19:08:09.894Z,29.00
2018-11-05T19:10:38.208Z,22.30
2018-11-05T19:13:06.694Z,23.97
2018-11-05T19:15:34.999Z,26.40
2018-11-05T19:18:03.367Z,26.90
2018-11-05T19:20:31.689Z,28.10
2018-11-05T19:23:00.321Z,28.17
2018-11-05T19:25:28.499Z,25.20
2018-11-05T19:27:56.798Z,26.37
2018-11-05T19:30:26.508Z,25.80
2018-11-05T19:32:54.775Z,25.87
2018-11-05T19:35:23.149Z,30.80
2018-11-05T19:37:51.526Z,24.57
2018-11-05T19:40:20.605Z,29.97
2018-11-05T19:42:49.525Z,21.37
2018-11-05T19:45:18.803Z,29.97
2018-11-05T19:47:47.101Z,31.63
2018-11-05T19:50:17.508Z,26.13
2018-11-05T19:52:46.549Z,28.97
2018-11-05T19:55:15.999Z,26.13
2018-11-05T19:57:45.204Z,28.67
2018-11-05T20:00:17.858Z,27.23
2018-11-05T20:02:46.884Z,25.37
2018-11-05T20:05:15.564Z,24.17
2018-11-05T20:07:44.353Z,26.87
2018-11-05T20:10:13.129Z,25.47
2018-11-05T20:12:42.077Z,25.57
2018-11-05T20:15:11.263Z,26.83
2018-11-05T20:17:40.807Z,26.43
2018-11-05T20:20:10.875Z,35.80
2018-11-05T20:22:39.461Z,24.80
2018-11-05T20:25:08.264Z,31.87
2018-11-05T20:27:38.608Z,26.97
2018-11-05T20:30:10.143Z,28.67
2018-11-05T20:32:39.081Z,26.10
2018-11-05T20:35:07.582Z,31.87
2018-11-05T20:37:36.013Z,40.33
2018-11-05T20:40:04.906Z,43.20
2018-11-05T20:42:33.173Z,26.20
2018-11-05T20:45:01.616Z,28.83
2018-11-05T20:47:30.044Z,29.77
2018-11-05T20:49:58.421Z,33.43
2018-11-05T20:52:27.049Z,23.97
2018-11-05T20:54:55.365Z,29.33
2018-11-05T20:57:23.940Z,24.40
2018-11-05T20:59:52.417Z,35.97
2018-11-05T21:02:20.918Z,27.03
2018-11-05T21:04:49.308Z,29.47
2018-11-05T21:07:17.675Z,24.97
2018-11-05T21:09:46.104Z,25.87
2018-11-05T21:12:14.531Z,23.00
2018-11-05T21:14:42.940Z,22.77
2018-11-05T21:17:11.263Z,24.43
2018-11-05T21:19:39.653Z,28.57
2018-11-05T21:22:09.721Z,25.33
2018-11-05T21:24:38.107Z,28.13
2018-11-05T21:27:07.216Z,29.80
2018-11-05T21:29:35.412Z,25.57
2018-11-05T21:32:04.267Z,29.87
2018-11-05T21:34:32.707Z,26.60
2018-11-05T21:37:01.381Z,22.90
2018-11-05T21:39:29.626Z,24.10
2018-11-05T21:41:57.992Z,29.33
2018-11-05T21:44:26.645Z,32.33
2018-11-05T21:46:55.779Z,31.17
2018-11-05T21:49:24.101Z,27.97
2018-11-05T21:51:52.476Z,28.10
2018-11-05T21:54:21.005Z,26.40
2018-11-05T21:56:51.638Z,25.53
2018-11-05T21:59:21.143Z,27.83
2018-11-05T22:01:50.323Z,25.93
2018-11-05T22:04:18.656Z,26.57
2018-11-05T22:06:46.956Z,32.47
2018-11-05T22:09:15.342Z,25.03
2018-11-05T22:11:43.766Z,25.53
2018-11-05T22:14:12.083Z,30.03
2018-11-05T22:16:40.383Z,32.77
2018-11-05T22:19:09.002Z,23.40
2018-11-05T22:21:37.355Z,26.13
2018-11-05T22:24:06.317Z,28.73
2018-11-05T22:26:34.798Z,25.37
2018-11-05T22:29:03.261Z,28.20
2018-11-05T22:31:31.783Z,26.30
2018-11-05T22:34:00.284Z,24.53
2018-11-05T22:36:28.624Z,27.83
2018-11-05T22:38:56.967Z,28.70
2018-11-05T22:41:25.259Z,32.67
2018-11-05T22:43:53.609Z,30.37
2018-11-05T22:46:21.928Z,27.63
2018-11-05T22:48:50.292Z,27.70
2018-11-05T22:51:18.680Z,28.70
2018-11-05T22:53:46.966Z,27.93
2018-11-05T22:56:15.240Z,26.63
2018-11-05T22:58:43.612Z,29.00
2018-11-05T23:01:17.262Z,28.87
2018-11-05T23:03:45.827Z,30.13
2018-11-05T23:06:14.307Z,26.77
2018-11-05T23:08:45.035Z,24.17
2018-11-05T23:11:13.827Z,27.00
2018-11-05T23:13:42.208Z,29.47
2018-11-05T23:16:13.966Z,27.17
2018-11-05T23:18:43.167Z,27.23
2018-11-05T23:21:11.527Z,29.53
2018-11-05T23:23:39.920Z,28.73
2018-11-05T23:26:08.254Z,26.23
2018-11-05T23:28:36.629Z,31.40
2018-11-05T23:31:05.760Z,51.17
2018-11-05T23:33:34.276Z,43.07
2018-11-05T23:36:02.478Z,29.53
2018-11-05T23:38:30.765Z,28.20
2018-11-05T23:40:59.096Z,31.70
2018-11-05T23:43:27.444Z,65.10
2018-11-05T23:45:55.747Z,39.50
2018-11-05T23:48:24.078Z,35.13
2018-11-05T23:50:52.392Z,37.73
2018-11-05T23:53:20.836Z,39.17
2018-11-05T23:55:49.242Z,34.77
2018-11-05T23:58:17.627Z,29.53
